sensor_id;sensor_type;location;lat;lon;timestamp;P1;durP1;ratioP1;P2;durP2;ratioP2
10509;SDS011;5303;53.266;10.410;2023-12-22T00:00:55;18.87;;;4.23;;
10509;SDS011;5303;53.266;10.410;2023-12-22T00:03:20;19.20;;;4.73;;
10509;SDS011;5303;53.266;10.410;2023-12-22T00:05:45;18.87;;;4.33;;
10509;SDS011;5303;53.266;10.410;2023-12-22T00:08:11;12.03;;;3.90;;
10509;SDS011;5303;53.266;10.410;2023-12-22T00:10:36;18.67;;;4.37;;
10509;SDS011;5303;53.266;10.410;2023-12-22T00:13:01;11.37;;;3.27;;
10509;SDS011;5303;53.266;10.410;2023-12-22T00:15:26;16.63;;;3.83;;
10509;SDS011;5303;53.266;10.410;2023-12-22T00:17:52;16.57;;;4.17;;
10509;SDS011;5303;53.266;10.410;2023-12-22T00:20:17;20.50;;;4.23;;
10509;SDS011;5303;53.266;10.410;2023-12-22T00:22:43;15.57;;;4.17;;
10509;SDS011;5303;53.266;10.410;2023-12-22T00:25:09;17.13;;;4.43;;
10509;SDS011;5303;53.266;10.410;2023-12-22T00:27:34;18.67;;;4.83;;
10509;SDS011;5303;53.266;10.410;2023-12-22T00:30:00;13.17;;;3.97;;
10509;SDS011;5303;53.266;10.410;2023-12-22T00:32:25;17.60;;;4.47;;
10509;SDS011;5303;53.266;10.410;2023-12-22T00:34:50;11.27;;;3.80;;
10509;SDS011;5303;53.266;10.410;2023-12-22T00:37:16;17.33;;;4.37;;
10509;SDS011;5303;53.266;10.410;2023-12-22T00:39:41;13.27;;;3.73;;
10509;SDS011;5303;53.266;10.410;2023-12-22T00:42:07;18.00;;;3.73;;
10509;SDS011;5303;53.266;10.410;2023-12-22T00:44:32;18.27;;;3.77;;
10509;SDS011;5303;53.266;10.410;2023-12-22T00:46:57;10.20;;;3.30;;
10509;SDS011;5303;53.266;10.410;2023-12-22T00:49:22;13.10;;;3.27;;
10509;SDS011;5303;53.266;10.410;2023-12-22T00:51:48;12.87;;;4.00;;
10509;SDS011;5303;53.266;10.410;2023-12-22T00:54:13;15.17;;;3.83;;
10509;SDS011;5303;53.266;10.410;2023-12-22T00:56:38;9.60;;;2.63;;
10509;SDS011;5303;53.266;10.410;2023-12-22T00:59:03;9.03;;;3.27;;
10509;SDS011;5303;53.266;10.410;2023-12-22T01:01:29;12.10;;;3.30;;
10509;SDS011;5303;53.266;10.410;2023-12-22T01:03:54;9.73;;;3.10;;
10509;SDS011;5303;53.266;10.410;2023-12-22T01:06:19;10.97;;;3.20;;
10509;SDS011;5303;53.266;10.410;2023-12-22T01:08:44;10.60;;;3.17;;
10509;SDS011;5303;53.266;10.410;2023-12-22T01:11:10;12.90;;;3.47;;
10509;SDS011;5303;53.266;10.410;2023-12-22T01:13:35;10.10;;;2.97;;
10509;SDS011;5303;53.266;10.410;2023-12-22T01:16:00;18.47;;;4.27;;
10509;SDS011;5303;53.266;10.410;2023-12-22T01:18:26;18.83;;;4.23;;
10509;SDS011;5303;53.266;10.410;2023-12-22T01:20:54;17.63;;;4.00;;
10509;SDS011;5303;53.266;10.410;2023-12-22T01:23:20;15.80;;;4.17;;
10509;SDS011;5303;53.266;10.410;2023-12-22T01:25:45;13.03;;;3.67;;
10509;SDS011;5303;53.266;10.410;2023-12-22T01:28:10;12.73;;;3.53;;
10509;SDS011;5303;53.266;10.410;2023-12-22T01:30:36;16.43;;;4.60;;
10509;SDS011;5303;53.266;10.410;2023-12-22T01:33:01;13.83;;;3.83;;
10509;SDS011;5303;53.266;10.410;2023-12-22T01:35:26;15.73;;;4.07;;
10509;SDS011;5303;53.266;10.410;2023-12-22T01:37:52;12.07;;;2.93;;
10509;SDS011;5303;53.266;10.410;2023-12-22T01:40:18;13.07;;;3.03;;
10509;SDS011;5303;53.266;10.410;2023-12-22T01:42:43;13.63;;;3.27;;
10509;SDS011;5303;53.266;10.410;2023-12-22T01:45:10;12.10;;;2.93;;
10509;SDS011;5303;53.266;10.410;2023-12-22T01:47:35;12.13;;;3.67;;
10509;SDS011;5303;53.266;10.410;2023-12-22T01:50:01;9.40;;;2.47;;
10509;SDS011;5303;53.266;10.410;2023-12-22T01:52:27;6.47;;;2.10;;
10509;SDS011;5303;53.266;10.410;2023-12-22T01:54:52;6.93;;;2.00;;
10509;SDS011;5303;53.266;10.410;2023-12-22T01:57:20;10.00;;;2.57;;
10509;SDS011;5303;53.266;10.410;2023-12-22T01:59:46;7.63;;;2.30;;
10509;SDS011;5303;53.266;10.410;2023-12-22T02:02:13;4.30;;;2.20;;
10509;SDS011;5303;53.266;10.410;2023-12-22T02:04:38;7.30;;;2.07;;
10509;SDS011;5303;53.266;10.410;2023-12-22T02:07:04;7.50;;;2.20;;
10509;SDS011;5303;53.266;10.410;2023-12-22T02:09:33;8.53;;;2.40;;
10509;SDS011;5303;53.266;10.410;2023-12-22T02:11:58;6.97;;;2.37;;
10509;SDS011;5303;53.266;10.410;2023-12-22T02:14:23;5.07;;;1.90;;
10509;SDS011;5303;53.266;10.410;2023-12-22T02:16:52;12.00;;;2.47;;
10509;SDS011;5303;53.266;10.410;2023-12-22T02:22:10;9.00;;;2.50;;
10509;SDS011;5303;53.266;10.410;2023-12-22T02:24:37;8.30;;;2.43;;
10509;SDS011;5303;53.266;10.410;2023-12-22T02:27:11;7.03;;;2.20;;
10509;SDS011;5303;53.266;10.410;2023-12-22T02:29:56;10.73;;;2.10;;
10509;SDS011;5303;53.266;10.410;2023-12-22T02:32:34;6.37;;;2.33;;
10509;SDS011;5303;53.266;10.410;2023-12-22T02:35:03;9.53;;;2.20;;
10509;SDS011;5303;53.266;10.410;2023-12-22T02:37:32;13.63;;;2.10;;
10509;SDS011;5303;53.266;10.410;2023-12-22T02:40:00;11.97;;;2.63;;
10509;SDS011;5303;53.266;10.410;2023-12-22T02:42:27;9.67;;;1.97;;
10509;SDS011;5303;53.266;10.410;2023-12-22T02:44:56;7.27;;;2.53;;
10509;SDS011;5303;53.266;10.410;2023-12-22T02:47:23;13.23;;;3.53;;
10509;SDS011;5303;53.266;10.410;2023-12-22T02:49:48;5.30;;;1.90;;
10509;SDS011;5303;53.266;10.410;2023-12-22T02:52:13;7.03;;;2.20;;
10509;SDS011;5303;53.266;10.410;2023-12-22T02:54:38;7.70;;;2.00;;
10509;SDS011;5303;53.266;10.410;2023-12-22T02:57:05;10.87;;;2.37;;
10509;SDS011;5303;53.266;10.410;2023-12-22T02:59:33;9.90;;;2.63;;
10509;SDS011;5303;53.266;10.410;2023-12-22T03:01:58;9.40;;;2.20;;
10509;SDS011;5303;53.266;10.410;2023-12-22T03:04:24;9.97;;;2.47;;
10509;SDS011;5303;53.266;10.410;2023-12-22T03:06:49;9.73;;;2.17;;
10509;SDS011;5303;53.266;10.410;2023-12-22T03:09:14;9.80;;;3.07;;
10509;SDS011;5303;53.266;10.410;2023-12-22T03:11:40;11.50;;;2.97;;
10509;SDS011;5303;53.266;10.410;2023-12-22T03:14:05;9.33;;;2.50;;
10509;SDS011;5303;53.266;10.410;2023-12-22T03:16:30;11.53;;;2.73;;
10509;SDS011;5303;53.266;10.410;2023-12-22T03:18:55;12.87;;;2.87;;
10509;SDS011;5303;53.266;10.410;2023-12-22T03:21:21;8.37;;;3.07;;
10509;SDS011;5303;53.266;10.410;2023-12-22T03:23:46;15.07;;;2.87;;
10509;SDS011;5303;53.266;10.410;2023-12-22T03:26:11;13.33;;;3.00;;
10509;SDS011;5303;53.266;10.410;2023-12-22T03:28:37;14.93;;;3.07;;
10509;SDS011;5303;53.266;10.410;2023-12-22T03:31:03;4.43;;;1.40;;
10509;SDS011;5303;53.266;10.410;2023-12-22T03:33:28;2.40;;;1.00;;
10509;SDS011;5303;53.266;10.410;2023-12-22T03:35:54;3.70;;;0.80;;
10509;SDS011;5303;53.266;10.410;2023-12-22T03:38:19;2.50;;;1.00;;
10509;SDS011;5303;53.266;10.410;2023-12-22T03:40:44;2.03;;;0.83;;
10509;SDS011;5303;53.266;10.410;2023-12-22T03:43:10;4.53;;;1.10;;
10509;SDS011;5303;53.266;10.410;2023-12-22T03:45:35;5.33;;;1.40;;
10509;SDS011;5303;53.266;10.410;2023-12-22T03:48:00;4.03;;;1.53;;
10509;SDS011;5303;53.266;10.410;2023-12-22T03:50:25;2.43;;;1.00;;
10509;SDS011;5303;53.266;10.410;2023-12-22T03:52:51;4.50;;;1.43;;
10509;SDS011;5303;53.266;10.410;2023-12-22T03:55:16;2.83;;;1.37;;
10509;SDS011;5303;53.266;10.410;2023-12-22T03:57:42;5.40;;;1.63;;
10509;SDS011;5303;53.266;10.410;2023-12-22T04:00:08;3.17;;;1.30;;
10509;SDS011;5303;53.266;10.410;2023-12-22T04:02:33;3.80;;;1.30;;
10509;SDS011;5303;53.266;10.410;2023-12-22T04:04:59;3.50;;;1.30;;
10509;SDS011;5303;53.266;10.410;2023-12-22T04:07:24;5.37;;;1.40;;
10509;SDS011;5303;53.266;10.410;2023-12-22T04:09:49;2.33;;;1.60;;
10509;SDS011;5303;53.266;10.410;2023-12-22T04:12:14;3.83;;;1.30;;
10509;SDS011;5303;53.266;10.410;2023-12-22T04:14:40;4.00;;;1.07;;
10509;SDS011;5303;53.266;10.410;2023-12-22T04:17:05;4.63;;;1.80;;
10509;SDS011;5303;53.266;10.410;2023-12-22T04:19:30;6.67;;;1.10;;
10509;SDS011;5303;53.266;10.410;2023-12-22T04:21:56;3.70;;;1.47;;
10509;SDS011;5303;53.266;10.410;2023-12-22T04:24:21;7.20;;;1.60;;
10509;SDS011;5303;53.266;10.410;2023-12-22T04:26:47;13.40;;;1.90;;
10509;SDS011;5303;53.266;10.410;2023-12-22T04:29:12;5.43;;;1.67;;
10509;SDS011;5303;53.266;10.410;2023-12-22T04:31:38;5.17;;;1.60;;
10509;SDS011;5303;53.266;10.410;2023-12-22T04:34:03;6.67;;;1.77;;
10509;SDS011;5303;53.266;10.410;2023-12-22T04:36:29;7.07;;;1.50;;
10509;SDS011;5303;53.266;10.410;2023-12-22T04:38:54;7.43;;;1.73;;
10509;SDS011;5303;53.266;10.410;2023-12-22T04:41:19;6.73;;;1.60;;
10509;SDS011;5303;53.266;10.410;2023-12-22T04:43:45;3.73;;;1.93;;
10509;SDS011;5303;53.266;10.410;2023-12-22T04:46:10;5.77;;;1.87;;
10509;SDS011;5303;53.266;10.410;2023-12-22T04:48:35;7.33;;;1.90;;
10509;SDS011;5303;53.266;10.410;2023-12-22T04:51:01;8.10;;;2.00;;
10509;SDS011;5303;53.266;10.410;2023-12-22T04:53:27;6.30;;;1.70;;
10509;SDS011;5303;53.266;10.410;2023-12-22T04:55:52;6.40;;;1.87;;
10509;SDS011;5303;53.266;10.410;2023-12-22T04:58:17;6.40;;;1.90;;
10509;SDS011;5303;53.266;10.410;2023-12-22T05:00:43;6.53;;;1.87;;
10509;SDS011;5303;53.266;10.410;2023-12-22T05:03:08;6.07;;;1.80;;
10509;SDS011;5303;53.266;10.410;2023-12-22T05:05:33;9.37;;;1.93;;
10509;SDS011;5303;53.266;10.410;2023-12-22T05:07:58;8.03;;;1.90;;
10509;SDS011;5303;53.266;10.410;2023-12-22T05:10:24;7.27;;;1.83;;
10509;SDS011;5303;53.266;10.410;2023-12-22T05:12:49;8.30;;;2.30;;
10509;SDS011;5303;53.266;10.410;2023-12-22T05:15:14;9.43;;;2.20;;
10509;SDS011;5303;53.266;10.410;2023-12-22T05:17:40;8.33;;;2.80;;
10509;SDS011;5303;53.266;10.410;2023-12-22T05:20:06;9.37;;;2.20;;
10509;SDS011;5303;53.266;10.410;2023-12-22T05:22:31;9.90;;;2.70;;
10509;SDS011;5303;53.266;10.410;2023-12-22T05:24:57;10.80;;;2.20;;
10509;SDS011;5303;53.266;10.410;2023-12-22T05:27:23;10.63;;;2.27;;
10509;SDS011;5303;53.266;10.410;2023-12-22T05:29:50;8.03;;;2.37;;
10509;SDS011;5303;53.266;10.410;2023-12-22T05:32:15;14.03;;;3.37;;
10509;SDS011;5303;53.266;10.410;2023-12-22T05:34:40;13.87;;;2.70;;
10509;SDS011;5303;53.266;10.410;2023-12-22T05:37:06;13.17;;;2.53;;
10509;SDS011;5303;53.266;10.410;2023-12-22T05:39:31;8.60;;;2.73;;
10509;SDS011;5303;53.266;10.410;2023-12-22T05:41:57;8.93;;;2.40;;
10509;SDS011;5303;53.266;10.410;2023-12-22T05:44:22;8.20;;;2.30;;
10509;SDS011;5303;53.266;10.410;2023-12-22T05:46:49;5.10;;;1.80;;
10509;SDS011;5303;53.266;10.410;2023-12-22T05:49:14;11.10;;;2.40;;
10509;SDS011;5303;53.266;10.410;2023-12-22T05:51:40;10.07;;;2.43;;
10509;SDS011;5303;53.266;10.410;2023-12-22T05:54:06;7.50;;;2.17;;
10509;SDS011;5303;53.266;10.410;2023-12-22T05:56:33;10.10;;;2.00;;
10509;SDS011;5303;53.266;10.410;2023-12-22T05:58:58;6.60;;;2.00;;
10509;SDS011;5303;53.266;10.410;2023-12-22T06:01:24;5.20;;;1.77;;
10509;SDS011;5303;53.266;10.410;2023-12-22T06:03:49;8.37;;;1.80;;
10509;SDS011;5303;53.266;10.410;2023-12-22T06:06:14;10.90;;;2.33;;
10509;SDS011;5303;53.266;10.410;2023-12-22T06:08:40;5.97;;;1.57;;
10509;SDS011;5303;53.266;10.410;2023-12-22T06:11:05;9.77;;;2.17;;
10509;SDS011;5303;53.266;10.410;2023-12-22T06:13:30;11.97;;;2.47;;
10509;SDS011;5303;53.266;10.410;2023-12-22T06:15:56;7.20;;;2.00;;
10509;SDS011;5303;53.266;10.410;2023-12-22T06:18:22;10.47;;;1.90;;
10509;SDS011;5303;53.266;10.410;2023-12-22T06:20:47;4.63;;;2.10;;
10509;SDS011;5303;53.266;10.410;2023-12-22T06:23:12;8.20;;;1.93;;
10509;SDS011;5303;53.266;10.410;2023-12-22T06:25:38;8.00;;;1.70;;
10509;SDS011;5303;53.266;10.410;2023-12-22T06:28:03;5.73;;;1.83;;
10509;SDS011;5303;53.266;10.410;2023-12-22T06:30:28;6.70;;;1.93;;
10509;SDS011;5303;53.266;10.410;2023-12-22T06:32:55;5.93;;;1.77;;
10509;SDS011;5303;53.266;10.410;2023-12-22T06:35:20;13.60;;;2.53;;
10509;SDS011;5303;53.266;10.410;2023-12-22T06:37:48;8.50;;;2.60;;
10509;SDS011;5303;53.266;10.410;2023-12-22T06:40:14;9.47;;;1.67;;
10509;SDS011;5303;53.266;10.410;2023-12-22T06:42:40;7.70;;;2.13;;
10509;SDS011;5303;53.266;10.410;2023-12-22T06:45:05;7.00;;;2.10;;
10509;SDS011;5303;53.266;10.410;2023-12-22T06:47:31;8.00;;;2.13;;
10509;SDS011;5303;53.266;10.410;2023-12-22T06:49:56;7.83;;;2.20;;
10509;SDS011;5303;53.266;10.410;2023-12-22T06:52:21;8.90;;;2.10;;
10509;SDS011;5303;53.266;10.410;2023-12-22T06:54:47;10.33;;;2.10;;
10509;SDS011;5303;53.266;10.410;2023-12-22T06:57:12;10.43;;;2.80;;
10509;SDS011;5303;53.266;10.410;2023-12-22T06:59:38;8.73;;;2.40;;
10509;SDS011;5303;53.266;10.410;2023-12-22T07:02:03;7.50;;;2.10;;
10509;SDS011;5303;53.266;10.410;2023-12-22T07:04:29;5.63;;;1.67;;
10509;SDS011;5303;53.266;10.410;2023-12-22T07:06:54;8.27;;;2.47;;
10509;SDS011;5303;53.266;10.410;2023-12-22T07:11:51;7.77;;;1.90;;
10509;SDS011;5303;53.266;10.410;2023-12-22T07:14:20;14.43;;;2.43;;
10509;SDS011;5303;53.266;10.410;2023-12-22T07:16:46;8.43;;;2.90;;
10509;SDS011;5303;53.266;10.410;2023-12-22T07:19:11;10.27;;;2.83;;
10509;SDS011;5303;53.266;10.410;2023-12-22T07:21:39;11.97;;;2.70;;
10509;SDS011;5303;53.266;10.410;2023-12-22T07:24:05;9.50;;;2.63;;
10509;SDS011;5303;53.266;10.410;2023-12-22T07:26:31;11.53;;;3.10;;
10509;SDS011;5303;53.266;10.410;2023-12-22T07:28:56;11.83;;;2.70;;
10509;SDS011;5303;53.266;10.410;2023-12-22T07:31:22;11.93;;;3.13;;
10509;SDS011;5303;53.266;10.410;2023-12-22T07:33:47;14.80;;;3.03;;
10509;SDS011;5303;53.266;10.410;2023-12-22T07:36:13;9.03;;;2.20;;
10509;SDS011;5303;53.266;10.410;2023-12-22T07:38:38;11.67;;;2.90;;
10509;SDS011;5303;53.266;10.410;2023-12-22T07:41:04;14.90;;;2.70;;
10509;SDS011;5303;53.266;10.410;2023-12-22T07:43:29;9.63;;;2.40;;
10509;SDS011;5303;53.266;10.410;2023-12-22T07:45:55;11.67;;;2.80;;
10509;SDS011;5303;53.266;10.410;2023-12-22T07:48:20;8.40;;;2.10;;
10509;SDS011;5303;53.266;10.410;2023-12-22T07:50:46;12.60;;;3.37;;
10509;SDS011;5303;53.266;10.410;2023-12-22T07:53:11;8.17;;;3.03;;
10509;SDS011;5303;53.266;10.410;2023-12-22T07:55:37;10.43;;;3.27;;
10509;SDS011;5303;53.266;10.410;2023-12-22T07:58:03;13.83;;;3.17;;
10509;SDS011;5303;53.266;10.410;2023-12-22T08:00:29;22.30;;;3.80;;
10509;SDS011;5303;53.266;10.410;2023-12-22T08:02:54;10.07;;;2.77;;
10509;SDS011;5303;53.266;10.410;2023-12-22T08:05:20;12.00;;;3.20;;
10509;SDS011;5303;53.266;10.410;2023-12-22T08:07:45;18.80;;;3.87;;
10509;SDS011;5303;53.266;10.410;2023-12-22T08:10:10;15.90;;;3.50;;
10509;SDS011;5303;53.266;10.410;2023-12-22T08:12:36;23.27;;;3.53;;
10509;SDS011;5303;53.266;10.410;2023-12-22T08:15:02;11.87;;;2.67;;
10509;SDS011;5303;53.266;10.410;2023-12-22T08:17:28;12.23;;;2.87;;
10509;SDS011;5303;53.266;10.410;2023-12-22T08:19:53;17.73;;;3.50;;
10509;SDS011;5303;53.266;10.410;2023-12-22T08:22:19;10.43;;;2.80;;
10509;SDS011;5303;53.266;10.410;2023-12-22T08:24:44;12.17;;;2.73;;
10509;SDS011;5303;53.266;10.410;2023-12-22T08:27:10;16.80;;;3.03;;
10509;SDS011;5303;53.266;10.410;2023-12-22T08:29:35;13.43;;;2.67;;
10509;SDS011;5303;53.266;10.410;2023-12-22T08:32:00;15.57;;;3.13;;
10509;SDS011;5303;53.266;10.410;2023-12-22T08:34:26;14.10;;;3.47;;
10509;SDS011;5303;53.266;10.410;2023-12-22T08:36:54;11.57;;;3.53;;
10509;SDS011;5303;53.266;10.410;2023-12-22T08:39:19;13.10;;;3.30;;
10509;SDS011;5303;53.266;10.410;2023-12-22T08:41:45;16.17;;;2.80;;
10509;SDS011;5303;53.266;10.410;2023-12-22T08:44:10;11.10;;;3.23;;
10509;SDS011;5303;53.266;10.410;2023-12-22T08:46:36;13.67;;;3.13;;
10509;SDS011;5303;53.266;10.410;2023-12-22T08:49:01;12.97;;;3.40;;
10509;SDS011;5303;53.266;10.410;2023-12-22T08:51:27;15.00;;;3.40;;
10509;SDS011;5303;53.266;10.410;2023-12-22T08:53:53;16.13;;;3.70;;
10509;SDS011;5303;53.266;10.410;2023-12-22T08:56:22;16.13;;;2.97;;
10509;SDS011;5303;53.266;10.410;2023-12-22T08:58:47;12.27;;;3.07;;
10509;SDS011;5303;53.266;10.410;2023-12-22T09:01:16;14.17;;;3.13;;
10509;SDS011;5303;53.266;10.410;2023-12-22T09:03:42;12.33;;;3.50;;
10509;SDS011;5303;53.266;10.410;2023-12-22T09:06:14;15.70;;;3.00;;
10509;SDS011;5303;53.266;10.410;2023-12-22T09:08:40;9.73;;;2.70;;
10509;SDS011;5303;53.266;10.410;2023-12-22T09:11:06;7.23;;;2.40;;
10509;SDS011;5303;53.266;10.410;2023-12-22T09:13:31;11.27;;;2.20;;
10509;SDS011;5303;53.266;10.410;2023-12-22T09:15:57;9.63;;;2.80;;
10509;SDS011;5303;53.266;10.410;2023-12-22T09:18:25;12.77;;;2.37;;
10509;SDS011;5303;53.266;10.410;2023-12-22T09:20:50;11.00;;;2.53;;
10509;SDS011;5303;53.266;10.410;2023-12-22T09:23:15;15.37;;;3.00;;
10509;SDS011;5303;53.266;10.410;2023-12-22T09:25:40;14.73;;;2.80;;
10509;SDS011;5303;53.266;10.410;2023-12-22T09:28:06;14.17;;;3.50;;
10509;SDS011;5303;53.266;10.410;2023-12-22T09:30:31;17.50;;;2.80;;
10509;SDS011;5303;53.266;10.410;2023-12-22T09:32:57;10.13;;;2.83;;
10509;SDS011;5303;53.266;10.410;2023-12-22T09:35:22;14.83;;;3.30;;
10509;SDS011;5303;53.266;10.410;2023-12-22T09:37:50;13.43;;;3.00;;
10509;SDS011;5303;53.266;10.410;2023-12-22T09:40:15;15.80;;;3.60;;
10509;SDS011;5303;53.266;10.410;2023-12-22T09:42:40;15.47;;;3.50;;
10509;SDS011;5303;53.266;10.410;2023-12-22T09:45:07;8.20;;;2.67;;
10509;SDS011;5303;53.266;10.410;2023-12-22T09:47:35;14.40;;;3.23;;
10509;SDS011;5303;53.266;10.410;2023-12-22T09:50:02;14.00;;;3.30;;
10509;SDS011;5303;53.266;10.410;2023-12-22T09:52:30;12.20;;;3.00;;
10509;SDS011;5303;53.266;10.410;2023-12-22T09:54:57;15.90;;;3.37;;
10509;SDS011;5303;53.266;10.410;2023-12-22T09:57:23;14.75;;;3.30;;
10509;SDS011;5303;53.266;10.410;2023-12-22T09:59:51;13.40;;;2.97;;
10509;SDS011;5303;53.266;10.410;2023-12-22T10:02:17;13.93;;;2.80;;
10509;SDS011;5303;53.266;10.410;2023-12-22T10:04:43;13.97;;;3.83;;
10509;SDS011;5303;53.266;10.410;2023-12-22T10:07:10;10.60;;;2.90;;
10509;SDS011;5303;53.266;10.410;2023-12-22T10:09:38;13.17;;;3.00;;
10509;SDS011;5303;53.266;10.410;2023-12-22T10:12:04;10.20;;;2.57;;
10509;SDS011;5303;53.266;10.410;2023-12-22T10:14:31;12.17;;;2.70;;
10509;SDS011;5303;53.266;10.410;2023-12-22T10:16:58;11.17;;;2.60;;
10509;SDS011;5303;53.266;10.410;2023-12-22T10:19:24;7.90;;;2.70;;
10509;SDS011;5303;53.266;10.410;2023-12-22T10:21:49;9.43;;;2.67;;
10509;SDS011;5303;53.266;10.410;2023-12-22T10:27:03;8.80;;;2.60;;
10509;SDS011;5303;53.266;10.410;2023-12-22T10:29:29;8.67;;;2.47;;
10509;SDS011;5303;53.266;10.410;2023-12-22T10:31:54;16.70;;;3.10;;
10509;SDS011;5303;53.266;10.410;2023-12-22T10:34:20;10.43;;;2.43;;
10509;SDS011;5303;53.266;10.410;2023-12-22T10:36:45;10.70;;;2.63;;
10509;SDS011;5303;53.266;10.410;2023-12-22T10:39:11;11.88;;;3.38;;
10509;SDS011;5303;53.266;10.410;2023-12-22T10:41:36;14.37;;;3.17;;
10509;SDS011;5303;53.266;10.410;2023-12-22T10:44:02;13.33;;;3.27;;
10509;SDS011;5303;53.266;10.410;2023-12-22T10:46:28;8.33;;;3.10;;
10509;SDS011;5303;53.266;10.410;2023-12-22T10:48:57;14.35;;;3.63;;
10509;SDS011;5303;53.266;10.410;2023-12-22T10:51:22;13.33;;;3.43;;
10509;SDS011;5303;53.266;10.410;2023-12-22T10:53:48;13.87;;;3.37;;
10509;SDS011;5303;53.266;10.410;2023-12-22T10:56:13;10.47;;;3.30;;
10509;SDS011;5303;53.266;10.410;2023-12-22T10:58:38;8.47;;;2.87;;
10509;SDS011;5303;53.266;10.410;2023-12-22T11:01:04;11.03;;;3.30;;
10509;SDS011;5303;53.266;10.410;2023-12-22T11:03:32;11.93;;;3.20;;
10509;SDS011;5303;53.266;10.410;2023-12-22T11:06:03;17.63;;;2.93;;
10509;SDS011;5303;53.266;10.410;2023-12-22T11:08:31;9.33;;;2.97;;
10509;SDS011;5303;53.266;10.410;2023-12-22T11:11:00;11.77;;;3.30;;
10509;SDS011;5303;53.266;10.410;2023-12-22T11:13:33;13.57;;;2.90;;
10509;SDS011;5303;53.266;10.410;2023-12-22T11:15:59;11.63;;;3.10;;
10509;SDS011;5303;53.266;10.410;2023-12-22T11:18:25;7.97;;;2.50;;
10509;SDS011;5303;53.266;10.410;2023-12-22T11:20:52;7.13;;;1.90;;
10509;SDS011;5303;53.266;10.410;2023-12-22T11:23:18;7.87;;;2.50;;
10509;SDS011;5303;53.266;10.410;2023-12-22T11:25:45;6.80;;;2.10;;
10509;SDS011;5303;53.266;10.410;2023-12-22T11:28:14;7.40;;;1.90;;
10509;SDS011;5303;53.266;10.410;2023-12-22T11:30:43;4.80;;;1.70;;
10509;SDS011;5303;53.266;10.410;2023-12-22T11:33:09;4.87;;;1.80;;
10509;SDS011;5303;53.266;10.410;2023-12-22T11:35:35;7.43;;;2.10;;
10509;SDS011;5303;53.266;10.410;2023-12-22T11:38:01;7.70;;;1.97;;
10509;SDS011;5303;53.266;10.410;2023-12-22T11:40:28;7.43;;;1.37;;
10509;SDS011;5303;53.266;10.410;2023-12-22T11:42:54;6.20;;;1.83;;
10509;SDS011;5303;53.266;10.410;2023-12-22T11:45:20;8.63;;;1.77;;
10509;SDS011;5303;53.266;10.410;2023-12-22T11:47:47;4.93;;;2.20;;
10509;SDS011;5303;53.266;10.410;2023-12-22T11:50:14;6.70;;;1.57;;
10509;SDS011;5303;53.266;10.410;2023-12-22T11:52:53;5.40;;;1.50;;
10509;SDS011;5303;53.266;10.410;2023-12-22T11:55:19;5.00;;;1.60;;
10509;SDS011;5303;53.266;10.410;2023-12-22T12:01:08;5.03;;;1.73;;
10509;SDS011;5303;53.266;10.410;2023-12-22T12:03:47;9.57;;;2.50;;
10509;SDS011;5303;53.266;10.410;2023-12-22T12:08:38;8.17;;;1.90;;
10509;SDS011;5303;53.266;10.410;2023-12-22T12:11:05;12.60;;;2.60;;
10509;SDS011;5303;53.266;10.410;2023-12-22T12:13:32;13.10;;;3.43;;
10509;SDS011;5303;53.266;10.410;2023-12-22T12:15:58;11.30;;;2.00;;
10509;SDS011;5303;53.266;10.410;2023-12-22T12:18:29;9.53;;;2.37;;
10509;SDS011;5303;53.266;10.410;2023-12-22T12:20:56;9.13;;;2.50;;
10509;SDS011;5303;53.266;10.410;2023-12-22T12:23:25;17.23;;;2.80;;
10509;SDS011;5303;53.266;10.410;2023-12-22T12:25:51;11.33;;;2.20;;
10509;SDS011;5303;53.266;10.410;2023-12-22T12:28:18;17.50;;;2.90;;
10509;SDS011;5303;53.266;10.410;2023-12-22T12:30:52;7.97;;;2.33;;
10509;SDS011;5303;53.266;10.410;2023-12-22T12:33:29;12.63;;;2.70;;
10509;SDS011;5303;53.266;10.410;2023-12-22T12:35:55;8.87;;;2.83;;
10509;SDS011;5303;53.266;10.410;2023-12-22T12:38:23;9.93;;;2.90;;
10509;SDS011;5303;53.266;10.410;2023-12-22T12:41:01;16.97;;;2.80;;
10509;SDS011;5303;53.266;10.410;2023-12-22T12:43:29;10.03;;;2.80;;
10509;SDS011;5303;53.266;10.410;2023-12-22T12:45:54;11.67;;;3.10;;
10509;SDS011;5303;53.266;10.410;2023-12-22T12:48:19;11.60;;;2.47;;
10509;SDS011;5303;53.266;10.410;2023-12-22T12:50:47;11.43;;;2.60;;
10509;SDS011;5303;53.266;10.410;2023-12-22T12:53:15;12.00;;;2.80;;
10509;SDS011;5303;53.266;10.410;2023-12-22T12:55:40;7.13;;;2.23;;
10509;SDS011;5303;53.266;10.410;2023-12-22T12:58:06;11.23;;;2.67;;
10509;SDS011;5303;53.266;10.410;2023-12-22T13:00:31;11.77;;;2.87;;
10509;SDS011;5303;53.266;10.410;2023-12-22T13:03:04;9.50;;;2.10;;
10509;SDS011;5303;53.266;10.410;2023-12-22T13:05:30;10.47;;;2.70;;
10509;SDS011;5303;53.266;10.410;2023-12-22T13:08:06;9.20;;;2.30;;
10509;SDS011;5303;53.266;10.410;2023-12-22T13:10:33;5.60;;;1.93;;
10509;SDS011;5303;53.266;10.410;2023-12-22T13:12:59;8.97;;;1.90;;
10509;SDS011;5303;53.266;10.410;2023-12-22T13:15:24;6.47;;;2.10;;
10509;SDS011;5303;53.266;10.410;2023-12-22T13:17:49;7.77;;;2.50;;
10509;SDS011;5303;53.266;10.410;2023-12-22T13:20:15;5.93;;;1.70;;
10509;SDS011;5303;53.266;10.410;2023-12-22T13:22:41;8.03;;;2.00;;
10509;SDS011;5303;53.266;10.410;2023-12-22T13:25:06;9.43;;;1.90;;
10509;SDS011;5303;53.266;10.410;2023-12-22T13:27:43;4.20;;;1.90;;
10509;SDS011;5303;53.266;10.410;2023-12-22T13:30:35;9.33;;;2.73;;
10509;SDS011;5303;53.266;10.410;2023-12-22T13:33:03;10.93;;;2.47;;
10509;SDS011;5303;53.266;10.410;2023-12-22T13:35:29;9.00;;;2.00;;
10509;SDS011;5303;53.266;10.410;2023-12-22T13:37:54;8.25;;;2.33;;
10509;SDS011;5303;53.266;10.410;2023-12-22T13:40:20;7.87;;;1.97;;
10509;SDS011;5303;53.266;10.410;2023-12-22T13:42:56;6.77;;;1.80;;
10509;SDS011;5303;53.266;10.410;2023-12-22T13:45:22;6.67;;;1.90;;
10509;SDS011;5303;53.266;10.410;2023-12-22T13:47:49;5.03;;;1.90;;
10509;SDS011;5303;53.266;10.410;2023-12-22T13:50:15;7.40;;;1.63;;
10509;SDS011;5303;53.266;10.410;2023-12-22T13:52:41;6.97;;;2.13;;
10509;SDS011;5303;53.266;10.410;2023-12-22T13:57:37;10.63;;;2.50;;
10509;SDS011;5303;53.266;10.410;2023-12-22T14:00:02;10.37;;;2.07;;
10509;SDS011;5303;53.266;10.410;2023-12-22T14:02:52;5.60;;;1.90;;
10509;SDS011;5303;53.266;10.410;2023-12-22T14:05:21;7.03;;;2.27;;
10509;SDS011;5303;53.266;10.410;2023-12-22T14:07:46;6.33;;;1.80;;
10509;SDS011;5303;53.266;10.410;2023-12-22T14:10:12;5.37;;;1.90;;
10509;SDS011;5303;53.266;10.410;2023-12-22T14:12:38;10.80;;;2.20;;
10509;SDS011;5303;53.266;10.410;2023-12-22T14:15:08;4.43;;;1.90;;
10509;SDS011;5303;53.266;10.410;2023-12-22T14:17:35;5.97;;;1.90;;
10509;SDS011;5303;53.266;10.410;2023-12-22T14:20:00;5.37;;;1.80;;
10509;SDS011;5303;53.266;10.410;2023-12-22T14:22:26;11.07;;;1.93;;
10509;SDS011;5303;53.266;10.410;2023-12-22T14:24:51;6.67;;;2.10;;
10509;SDS011;5303;53.266;10.410;2023-12-22T14:27:17;9.33;;;2.10;;
10509;SDS011;5303;53.266;10.410;2023-12-22T14:29:45;6.87;;;2.03;;
10509;SDS011;5303;53.266;10.410;2023-12-22T14:32:10;10.10;;;2.23;;
10509;SDS011;5303;53.266;10.410;2023-12-22T14:34:37;10.07;;;2.57;;
10509;SDS011;5303;53.266;10.410;2023-12-22T14:37:02;7.97;;;2.07;;
10509;SDS011;5303;53.266;10.410;2023-12-22T14:39:28;8.63;;;2.50;;
10509;SDS011;5303;53.266;10.410;2023-12-22T14:41:53;12.57;;;2.40;;
10509;SDS011;5303;53.266;10.410;2023-12-22T14:44:19;9.43;;;2.80;;
10509;SDS011;5303;53.266;10.410;2023-12-22T14:46:44;9.43;;;2.53;;
10509;SDS011;5303;53.266;10.410;2023-12-22T14:49:10;9.77;;;2.50;;
10509;SDS011;5303;53.266;10.410;2023-12-22T14:51:37;11.23;;;3.10;;